createdAt,value
2018-02-04T00:00:33.557Z,100349.53
2018-02-04T00:03:01.925Z,100351.34
2018-02-04T00:05:30.264Z,100356.09
2018-02-04T00:07:58.681Z,100360.00
2018-02-04T00:10:27.021Z,100364.77
2018-02-04T00:12:55.332Z,100365.71
2018-02-04T00:15:23.710Z,100369.67
2018-02-04T00:17:52.030Z,100372.77
2018-02-04T00:20:20.466Z,100377.48
2018-02-04T00:22:48.781Z,100385.27
2018-02-04T00:25:17.162Z,100388.70
2018-02-04T00:27:45.493Z,100381.70
2018-02-04T00:30:13.870Z,100393.52
2018-02-04T00:32:42.241Z,100395.80
2018-02-04T00:35:10.581Z,100403.54
2018-02-04T00:37:38.897Z,100402.69
2018-02-04T00:40:07.277Z,100400.38
2018-02-04T00:42:35.653Z,100408.76
2018-02-04T00:45:03.994Z,100416.09
2018-02-04T00:47:32.405Z,100410.42
2018-02-04T00:50:00.840Z,100416.91
2018-02-04T00:52:29.138Z,100415.58
2018-02-04T00:54:57.477Z,100421.66
2018-02-04T00:57:25.808Z,100418.61
2018-02-04T00:59:54.149Z,100423.47
2018-02-04T01:02:22.505Z,100429.65
2018-02-04T01:04:50.849Z,100432.67
2018-02-04T01:07:19.161Z,100434.81
2018-02-04T01:09:47.489Z,100440.44
2018-02-04T01:12:15.874Z,100445.30
2018-02-04T01:14:44.257Z,100446.11
2018-02-04T01:17:12.625Z,100443.92
2018-02-04T01:19:41.005Z,100445.72
2018-02-04T01:22:09.377Z,100450.39
2018-02-04T01:24:37.693Z,100453.96
2018-02-04T01:27:06.037Z,100456.16
2018-02-04T01:29:34.405Z,100456.19
2018-02-04T01:32:02.749Z,100459.21
2018-02-04T01:34:31.166Z,100460.49
2018-02-04T01:36:59.542Z,100466.17
2018-02-04T01:39:27.922Z,100459.62
2018-02-04T01:41:56.297Z,100463.56
2018-02-04T01:44:24.673Z,100463.91
2018-02-04T01:46:53.054Z,100466.43
2018-02-04T01:49:21.369Z,100472.09
2018-02-04T01:51:49.801Z,100472.13
2018-02-04T01:54:18.120Z,100477.32
2018-02-04T01:56:46.456Z,100482.09
2018-02-04T01:59:14.775Z,100479.48
2018-02-04T02:01:43.213Z,100489.89
2018-02-04T02:04:11.590Z,100482.17
2018-02-04T02:06:39.933Z,100483.41
2018-02-04T02:09:08.249Z,100490.33
2018-02-04T02:11:36.621Z,100485.94
2018-02-04T02:14:04.937Z,100492.02
2018-02-04T02:16:33.368Z,100491.59
2018-02-04T02:19:01.690Z,100489.87
2018-02-04T02:21:30.025Z,100490.35
2018-02-04T02:23:58.406Z,100493.81
2018-02-04T02:26:26.746Z,100494.76
2018-02-04T02:28:55.157Z,100490.00
2018-02-04T02:31:23.498Z,100493.06
2018-02-04T02:33:51.814Z,100489.98
2018-02-04T02:36:20.181Z,100495.30
2018-02-04T02:38:48.501Z,100498.73
2018-02-04T02:41:16.943Z,100498.27
2018-02-04T02:43:45.261Z,100503.95
2018-02-04T02:46:13.602Z,100501.80
2018-02-04T02:48:41.923Z,100503.13
2018-02-04T02:51:10.409Z,100513.12
2018-02-04T02:53:38.665Z,100516.19
2018-02-04T02:56:07.009Z,100517.86
2018-02-04T02:58:35.377Z,100527.39
2018-02-04T03:01:03.753Z,100524.87
2018-02-04T03:03:32.078Z,100534.36
2018-02-04T03:06:00.413Z,100536.97
2018-02-04T03:08:28.792Z,100547.02
2018-02-04T03:10:57.157Z,100552.22
2018-02-04T03:13:25.533Z,100550.84
2018-02-04T03:15:53.916Z,100554.40
2018-02-04T03:18:22.253Z,100554.75
2018-02-04T03:20:50.669Z,100559.62
2018-02-04T03:23:19.103Z,100563.52
2018-02-04T03:25:47.402Z,100566.09
2018-02-04T03:28:15.736Z,100576.52
2018-02-04T03:30:44.078Z,100576.40
2018-02-04T03:33:12.417Z,100584.70
2018-02-04T03:35:41.182Z,100591.23
2018-02-04T03:38:09.521Z,100596.00
2018-02-04T03:40:37.843Z,100596.45
2018-02-04T03:43:06.181Z,100595.65
2018-02-04T03:45:34.497Z,100601.76
2018-02-04T03:48:02.838Z,100611.75
2018-02-04T03:50:31.158Z,100613.92
2018-02-04T03:52:59.497Z,100626.54
2018-02-04T03:55:27.849Z,100622.62
2018-02-04T03:57:56.225Z,100620.94
2018-02-04T04:00:24.551Z,100630.08
2018-02-04T04:02:52.889Z,100629.65
2018-02-04T04:05:21.209Z,100640.11
2018-02-04T04:07:49.554Z,100644.00
2018-02-04T04:10:17.869Z,100644.47
2018-02-04T04:12:46.282Z,100652.27
2018-02-04T04:15:14.601Z,100650.98
2018-02-04T04:17:43.037Z,100661.84
2018-02-04T04:20:11.357Z,100663.19
2018-02-04T04:22:39.701Z,100664.05
2018-02-04T04:25:08.030Z,100661.45
2018-02-04T04:27:36.445Z,100667.95
2018-02-04T04:30:04.761Z,100674.89
2018-02-04T04:32:33.101Z,100676.63
2018-02-04T04:35:01.417Z,100681.42
2018-02-04T04:37:29.854Z,100683.12
2018-02-04T04:39:58.227Z,100690.52
2018-02-04T04:42:26.612Z,100688.77
2018-02-04T04:44:54.930Z,100686.61
2018-02-04T04:47:23.366Z,100696.19
2018-02-04T04:49:51.682Z,100692.70
2018-02-04T04:52:20.025Z,100688.78
2018-02-04T04:54:48.351Z,100698.78
2018-02-04T04:57:16.686Z,100709.64
2018-02-04T04:59:45.004Z,100705.68
2018-02-04T05:02:13.345Z,100707.89
2018-02-04T05:04:41.693Z,100713.07
2018-02-04T05:07:10.038Z,100714.84
2018-02-04T05:09:38.356Z,100717.39
2018-02-04T05:12:06.673Z,100720.84
2018-02-04T05:14:35.014Z,100724.78
2018-02-04T05:17:03.334Z,100723.45
2018-02-04T05:19:31.674Z,100724.72
2018-02-04T05:21:59.993Z,100732.95
2018-02-04T05:24:28.330Z,100730.28
2018-02-04T05:26:56.645Z,100732.86
2018-02-04T05:29:24.984Z,100736.34
2018-02-04T05:31:53.298Z,100741.14
2018-02-04T05:34:21.637Z,100741.58
2018-02-04T05:36:49.960Z,100748.13
2018-02-04T05:39:18.294Z,100750.75
2018-02-04T05:41:46.614Z,100751.65
2018-02-04T05:44:14.953Z,100757.73
2018-02-04T05:46:43.265Z,100764.69
2018-02-04T05:49:11.606Z,100765.09
2018-02-04T05:51:39.917Z,100764.23
2018-02-04T05:54:08.262Z,100768.59
2018-02-04T05:56:36.576Z,100771.63
2018-02-04T05:59:04.917Z,100769.89
2018-02-04T06:01:33.238Z,100768.55
2018-02-04T06:04:01.578Z,100773.34
2018-02-04T06:06:29.898Z,100781.65
2018-02-04T06:08:58.237Z,100788.60
2018-02-04T06:11:26.553Z,100791.66
2018-02-04T06:13:55.002Z,100786.88
2018-02-04T06:16:23.317Z,100802.97
2018-02-04T06:18:51.657Z,100799.51
2018-02-04T06:21:19.981Z,100801.69
2018-02-04T06:23:48.318Z,100811.70
2018-02-04T06:26:16.642Z,100819.09
2018-02-04T06:28:44.982Z,100826.50
2018-02-04T06:31:13.298Z,100834.38
2018-02-04T06:33:41.634Z,100841.77
2018-02-04T06:36:09.949Z,100835.25
2018-02-04T06:38:38.296Z,100850.48
2018-02-04T06:41:06.613Z,100847.43
2018-02-04T06:43:34.957Z,100855.70
2018-02-04T06:46:03.281Z,100856.56
2018-02-04T06:48:31.629Z,100866.17
2018-02-04T06:50:59.945Z,100880.53
2018-02-04T06:53:28.288Z,100880.97
2018-02-04T06:55:56.603Z,100888.36
2018-02-04T06:58:24.992Z,100888.37
2018-02-04T07:00:53.261Z,100895.78
2018-02-04T07:03:21.608Z,100897.50
2018-02-04T07:05:49.926Z,100903.17
2018-02-04T07:08:18.278Z,100904.91
2018-02-04T07:10:46.581Z,100908.41
2018-02-04T07:13:14.896Z,100920.59
2018-02-04T07:15:43.234Z,100930.60
2018-02-04T07:18:11.550Z,100935.36
2018-02-04T07:20:39.894Z,100941.89
2018-02-04T07:23:08.214Z,100949.72
2018-02-04T07:25:36.553Z,100958.41
2018-02-04T07:28:04.869Z,100966.25
2018-02-04T07:30:33.205Z,100966.70
2018-02-04T07:33:01.521Z,100976.68
2018-02-04T07:35:29.863Z,100977.55
2018-02-04T07:37:58.173Z,100986.27
2018-02-04T07:40:26.517Z,100992.80
2018-02-04T07:42:54.829Z,100992.41
2018-02-04T07:45:23.165Z,101000.66
2018-02-04T07:47:51.481Z,101001.52
2018-02-04T07:50:19.818Z,101004.56
2018-02-04T07:52:48.137Z,101007.17
2018-02-04T07:55:16.477Z,101011.09
2018-02-04T07:57:44.798Z,101018.08
2018-02-04T08:00:13.137Z,101023.30
2018-02-04T08:02:41.457Z,101030.28
2018-02-04T08:05:09.801Z,101039.85
2018-02-04T08:07:38.122Z,101037.67
2018-02-04T08:10:06.470Z,101033.75
2018-02-04T08:12:34.788Z,101045.48
2018-02-04T08:15:03.133Z,101052.45
2018-02-04T08:17:31.453Z,101050.72
2018-02-04T08:19:59.797Z,101052.00
2018-02-04T08:25:13.789Z,101069.70
2018-02-04T08:27:42.114Z,101070.59
2018-02-04T08:30:10.622Z,101081.94
2018-02-04T08:32:38.941Z,101087.05
2018-02-04T08:35:11.357Z,101096.56
2018-02-04T08:37:39.754Z,101099.62
2018-02-04T08:40:08.101Z,101101.80
2018-02-04T08:42:36.422Z,101107.87
2018-02-04T08:45:04.764Z,101116.19
2018-02-04T08:47:33.091Z,101120.17
2018-02-04T08:50:01.434Z,101122.69
2018-02-04T08:52:29.753Z,101128.83
2018-02-04T08:54:58.130Z,101131.95
2018-02-04T08:57:26.741Z,101138.05
2018-02-04T08:59:56.660Z,101152.36
2018-02-04T09:02:25.061Z,101153.27
2018-02-04T09:04:53.418Z,101157.59
2018-02-04T09:07:21.817Z,101167.19
2018-02-04T09:09:50.198Z,101167.95
2018-02-04T09:12:18.522Z,101170.58
2018-02-04T09:14:46.879Z,101172.70
2018-02-04T09:17:15.197Z,101172.85
2018-02-04T09:19:43.601Z,101175.03
2018-02-04T09:22:12.689Z,101172.04
2018-02-04T09:24:41.005Z,101174.67
2018-02-04T09:27:09.351Z,101178.62
2018-02-04T09:29:37.734Z,101173.81
2018-02-04T09:32:06.114Z,101175.59
2018-02-04T09:34:34.441Z,101181.25
2018-02-04T09:37:02.799Z,101185.34
2018-02-04T09:39:31.109Z,101183.58
2018-02-04T09:41:59.449Z,101193.98
2018-02-04T09:44:27.791Z,101196.09
2018-02-04T09:46:56.161Z,101206.48
2018-02-04T09:49:24.494Z,101206.52
2018-02-04T09:51:52.916Z,101216.89
2018-02-04T09:54:21.292Z,101221.67
2018-02-04T09:56:49.670Z,101222.03
2018-02-04T09:59:17.989Z,101223.75
2018-02-04T10:01:46.334Z,101226.35
2018-02-04T10:04:14.657Z,101229.47
2018-02-04T10:06:43.988Z,101235.12
2018-02-04T10:09:12.306Z,101241.72
2018-02-04T10:11:40.693Z,101243.41
2018-02-04T10:14:09.013Z,101246.05
2018-02-04T10:16:38.765Z,101244.67
2018-02-04T10:19:07.113Z,101239.99
2018-02-04T10:21:35.582Z,101252.66
2018-02-04T10:24:03.893Z,101256.09
2018-02-04T10:26:32.324Z,101256.63
2018-02-04T10:29:00.646Z,101262.72
2018-02-04T10:31:29.052Z,101257.97
2018-02-04T10:33:57.477Z,101269.57
2018-02-04T10:36:26.218Z,101266.55
2018-02-04T10:38:54.641Z,101266.98
2018-02-04T10:41:22.985Z,101272.22
2018-02-04T10:43:51.317Z,101270.97
2018-02-04T10:46:19.658Z,101277.05
2018-02-04T10:48:47.986Z,101279.70
2018-02-04T10:51:21.918Z,101278.34
2018-02-04T10:53:50.238Z,101286.30
2018-02-04T10:56:18.605Z,101288.06
2018-02-04T10:58:46.942Z,101296.80
2018-02-04T11:01:15.292Z,101297.27
2018-02-04T11:03:43.614Z,101301.65
2018-02-04T11:06:11.957Z,101302.98
2018-02-04T11:08:40.298Z,101300.73
2018-02-04T11:11:08.617Z,101303.72
2018-02-04T11:13:36.961Z,101311.95
2018-02-04T11:16:05.291Z,101316.82
2018-02-04T11:18:33.693Z,101312.37
2018-02-04T11:21:02.011Z,101318.88
2018-02-04T11:23:30.357Z,101313.73
2018-02-04T11:25:58.681Z,101314.66
2018-02-04T11:28:27.028Z,101313.30
2018-02-04T11:30:55.345Z,101315.49
2018-02-04T11:33:23.688Z,101317.20
2018-02-04T11:35:52.011Z,101316.77
2018-02-04T11:38:20.374Z,101325.48
2018-02-04T11:40:48.889Z,101328.19
2018-02-04T11:43:17.262Z,101332.95
2018-02-04T11:45:46.557Z,101332.64
2018-02-04T11:48:14.992Z,101340.00
2018-02-04T11:50:43.317Z,101340.06
2018-02-04T11:53:11.666Z,101344.87
2018-02-04T11:55:40.226Z,101340.52
2018-02-04T11:58:08.549Z,101347.53
2018-02-04T12:00:36.874Z,101350.55
2018-02-04T12:03:05.217Z,101353.23
2018-02-04T12:05:33.537Z,101351.91
2018-02-04T12:08:01.949Z,101354.50
2018-02-04T12:10:30.278Z,101363.71
2018-02-04T12:12:58.621Z,101357.16
2018-02-04T12:15:26.982Z,101364.09
2018-02-04T12:17:55.326Z,101363.65
2018-02-04T12:20:23.647Z,101361.02
2018-02-04T12:22:52.009Z,101367.19
2018-02-04T12:25:20.329Z,101372.78
2018-02-04T12:27:48.671Z,101376.70
2018-02-04T12:30:16.997Z,101377.17
2018-02-04T12:32:46.180Z,101380.27
2018-02-04T12:35:14.514Z,101378.97
2018-02-04T12:37:42.890Z,101379.37
2018-02-04T12:40:11.265Z,101383.75
2018-02-04T12:42:39.606Z,101385.48
2018-02-04T12:45:07.990Z,101385.06
2018-02-04T12:47:36.390Z,101388.17
2018-02-04T12:50:04.697Z,101389.92
2018-02-04T12:52:33.046Z,101389.02
2018-02-04T12:55:01.442Z,101389.49
2018-02-04T12:57:29.798Z,101395.12
2018-02-04T12:59:58.190Z,101398.61
2018-02-04T13:02:26.533Z,101397.31
2018-02-04T13:04:54.857Z,101398.63
2018-02-04T13:07:23.310Z,101401.64
2018-02-04T13:09:51.690Z,101402.50
2018-02-04T13:12:20.009Z,101402.52
2018-02-04T13:14:48.353Z,101404.71
2018-02-04T13:17:16.685Z,101410.39
2018-02-04T13:19:45.078Z,101406.02
2018-02-04T13:22:13.410Z,101408.64
2018-02-04T13:24:41.822Z,101412.15
2018-02-04T13:27:10.225Z,101413.92
2018-02-04T13:29:38.605Z,101413.94
2018-02-04T13:32:06.933Z,101410.41
2018-02-04T13:34:35.277Z,101410.78
2018-02-04T13:37:03.602Z,101408.20
2018-02-04T13:39:31.975Z,101417.83
2018-02-04T13:42:01.077Z,101416.92
2018-02-04T13:44:29.429Z,101427.36
2018-02-04T13:46:58.737Z,101426.98
2018-02-04T13:49:27.097Z,101425.62
2018-02-04T13:51:55.429Z,101426.43
2018-02-04T13:54:24.073Z,101438.27
2018-02-04T13:56:53.413Z,101435.66
2018-02-04T13:59:21.797Z,101442.11
2018-02-04T14:01:50.169Z,101447.33
2018-02-04T14:04:18.509Z,101451.19
2018-02-04T14:06:46.829Z,101450.27
2018-02-04T14:09:15.253Z,101451.23
2018-02-04T14:11:43.553Z,101457.75
2018-02-04T14:14:11.902Z,101458.66
2018-02-04T14:16:40.217Z,101461.26
2018-02-04T14:19:08.610Z,101457.77
2018-02-04T14:21:36.930Z,101465.63
2018-02-04T14:24:05.414Z,101463.91
2018-02-04T14:26:35.122Z,101466.11
2018-02-04T14:29:03.651Z,101470.04
2018-02-04T14:31:31.974Z,101472.72
2018-02-04T14:34:00.810Z,101477.50
2018-02-04T14:36:29.169Z,101476.63
2018-02-04T14:38:57.565Z,101478.43
2018-02-04T14:41:26.827Z,101480.59
2018-02-04T14:43:55.605Z,101484.08
2018-02-04T14:46:24.392Z,101480.22
2018-02-04T14:48:52.785Z,101481.92
2018-02-04T14:51:21.105Z,101492.02
2018-02-04T14:53:49.450Z,101494.22
2018-02-04T14:56:17.845Z,101498.54
2018-02-04T14:58:46.226Z,101499.41
2018-02-04T15:01:14.571Z,101501.54
2018-02-04T15:03:42.897Z,101508.17
2018-02-04T15:06:11.226Z,101508.20
2018-02-04T15:08:39.568Z,101511.60
2018-02-04T15:11:07.894Z,101510.36
2018-02-04T15:13:36.242Z,101514.30
2018-02-04T15:16:04.762Z,101519.97
2018-02-04T15:18:33.083Z,101515.55
2018-02-04T15:21:01.422Z,101522.06
2018-02-04T15:23:29.749Z,101521.66
2018-02-04T15:25:58.093Z,101524.69
2018-02-04T15:28:26.425Z,101533.83
2018-02-04T15:30:54.769Z,101535.52
2018-02-04T15:33:23.089Z,101528.97
2018-02-04T15:35:51.429Z,101532.37
2018-02-04T15:38:19.754Z,101543.81
2018-02-04T15:40:48.098Z,101540.73
2018-02-04T15:43:16.482Z,101546.88
2018-02-04T15:45:45.740Z,101552.20
2018-02-04T15:48:14.103Z,101555.20
2018-02-04T15:50:42.463Z,101556.01
2018-02-04T15:53:10.781Z,101557.70
2018-02-04T15:55:39.125Z,101553.70
2018-02-04T15:58:07.445Z,101566.33
2018-02-04T16:00:35.855Z,101576.65
2018-02-04T16:03:04.204Z,101573.20
2018-02-04T16:05:32.542Z,101573.27
2018-02-04T16:08:00.889Z,101581.91
2018-02-04T16:10:29.233Z,101581.07
2018-02-04T16:12:57.553Z,101581.45
2018-02-04T16:15:25.903Z,101582.31
2018-02-04T16:17:54.226Z,101586.17
2018-02-04T16:20:22.569Z,101591.42
2018-02-04T16:22:50.897Z,101594.92
2018-02-04T16:25:19.247Z,101597.47
2018-02-04T16:27:47.578Z,101598.34
2018-02-04T16:30:15.925Z,101597.98
2018-02-04T16:32:44.250Z,101604.88
2018-02-04T16:35:12.592Z,101609.23
2018-02-04T16:37:40.909Z,101607.55
2018-02-04T16:40:09.257Z,101611.48
2018-02-04T16:42:37.577Z,101615.41
2018-02-04T16:45:05.923Z,101618.00
2018-02-04T16:47:34.243Z,101620.19
2018-02-04T16:50:02.585Z,101628.11
2018-02-04T16:52:30.914Z,101617.27
2018-02-04T16:55:00.274Z,101623.70
2018-02-04T16:57:28.593Z,101628.58
2018-02-04T16:59:56.937Z,101630.73
2018-02-04T17:02:25.266Z,101630.81
2018-02-04T17:04:53.610Z,101627.75
2018-02-04T17:07:21.934Z,101635.59
2018-02-04T17:09:50.282Z,101641.28
2018-02-04T17:12:18.605Z,101640.37
2018-02-04T17:14:46.945Z,101646.50
2018-02-04T17:17:15.314Z,101656.12
2018-02-04T17:19:43.617Z,101661.44
2018-02-04T17:22:11.969Z,101665.70
2018-02-04T17:24:40.294Z,101671.01
2018-02-04T17:27:08.673Z,101672.25
2018-02-04T17:29:37.006Z,101673.14
2018-02-04T17:32:05.354Z,101674.41
2018-02-04T17:34:34.577Z,101678.70
2018-02-04T17:37:02.926Z,101678.36
2018-02-04T17:39:31.245Z,101680.52
2018-02-04T17:41:59.594Z,101683.52
2018-02-04T17:44:27.954Z,101689.64
2018-02-04T17:46:56.282Z,101690.66
2018-02-04T17:49:24.607Z,101695.41
2018-02-04T17:51:52.946Z,101693.63
2018-02-04T17:54:21.306Z,101698.80
2018-02-04T17:56:49.669Z,101694.88
2018-02-04T17:59:18.003Z,101699.70
2018-02-04T18:01:46.362Z,101706.77
2018-02-04T18:04:14.683Z,101705.39
2018-02-04T18:06:43.030Z,101711.51
2018-02-04T18:09:11.356Z,101708.42
2018-02-04T18:11:39.701Z,101714.82
2018-02-04T18:14:08.053Z,101710.56
2018-02-04T18:16:36.397Z,101713.19
2018-02-04T18:19:06.130Z,101716.59
2018-02-04T18:21:34.482Z,101719.77
2018-02-04T18:24:02.916Z,101717.50
2018-02-04T18:26:31.611Z,101723.18
2018-02-04T18:29:00.085Z,101719.62
2018-02-04T18:31:28.642Z,101724.48
2018-02-04T18:33:57.051Z,101725.77
2018-02-04T18:36:26.363Z,101731.08
2018-02-04T18:38:54.724Z,101740.31
2018-02-04T18:41:23.464Z,101742.48
2018-02-04T18:43:51.910Z,101750.65
2018-02-04T18:46:20.305Z,101755.55
2018-02-04T18:48:48.722Z,101756.29
2018-02-04T18:51:17.070Z,101756.54
2018-02-04T18:53:45.438Z,101763.06
2018-02-04T18:56:13.931Z,101762.21
2018-02-04T18:58:42.245Z,101769.61
2018-02-04T19:01:10.602Z,101769.96
2018-02-04T19:03:38.933Z,101769.59
2018-02-04T19:06:07.412Z,101776.63
2018-02-04T19:08:35.849Z,101780.58
2018-02-04T19:11:04.388Z,101784.12
2018-02-04T19:13:32.698Z,101785.88
2018-02-04T19:16:01.054Z,101780.91
2018-02-04T19:18:29.382Z,101787.80
2018-02-04T19:20:57.759Z,101790.03
2018-02-04T19:23:26.090Z,101794.69
2018-02-04T19:25:54.428Z,101795.95
2018-02-04T19:28:23.118Z,101788.56
2018-02-04T19:30:51.447Z,101783.95
2018-02-04T19:33:19.792Z,101796.77
2018-02-04T19:35:48.125Z,101794.93
2018-02-04T19:38:16.481Z,101791.99
2018-02-04T19:40:44.816Z,101793.28
2018-02-04T19:43:13.162Z,101791.09
2018-02-04T19:45:41.579Z,101796.75
2018-02-04T19:48:09.893Z,101801.06
2018-02-04T19:50:38.217Z,101806.80
2018-02-04T19:53:06.661Z,101802.03
2018-02-04T19:55:34.973Z,101804.27
2018-02-04T19:58:03.321Z,101808.28
2018-02-04T20:00:31.653Z,101810.45
2018-02-04T20:03:00.005Z,101811.91
2018-02-04T20:05:28.332Z,101812.87
2018-02-04T20:07:56.696Z,101815.39
2018-02-04T20:10:25.019Z,101818.37
2018-02-04T20:12:53.391Z,101830.64
2018-02-04T20:15:21.914Z,101822.75
2018-02-04T20:17:50.262Z,101832.58
2018-02-04T20:20:18.597Z,101832.56
2018-02-04T20:22:46.945Z,101836.52
2018-02-04T20:25:15.276Z,101841.39
2018-02-04T20:27:43.622Z,101840.56
2018-02-04T20:30:11.960Z,101844.15
2018-02-04T20:32:51.913Z,101838.05
2018-02-04T20:35:20.246Z,101842.40
2018-02-04T20:37:48.622Z,101841.00
2018-02-04T20:40:16.953Z,101842.83
2018-02-04T20:42:45.305Z,101838.11
2018-02-04T20:45:13.672Z,101843.72
2018-02-04T20:47:42.047Z,101845.03
2018-02-04T20:50:10.381Z,101853.38
2018-02-04T20:52:38.733Z,101854.56
2018-02-04T20:55:07.091Z,101860.20
2018-02-04T20:57:35.592Z,101863.63
2018-02-04T21:00:03.918Z,101861.52
2018-02-04T21:02:32.270Z,101869.80
2018-02-04T21:05:01.419Z,101875.39
2018-02-04T21:07:29.769Z,101878.96
2018-02-04T21:09:58.114Z,101876.84
2018-02-04T21:12:26.470Z,101879.06
2018-02-04T21:14:54.805Z,101880.86
2018-02-04T21:17:23.157Z,101883.44
2018-02-04T21:19:51.650Z,101884.37
2018-02-04T21:22:20.045Z,101883.52
2018-02-04T21:24:48.448Z,101895.72
2018-02-04T21:27:17.039Z,101905.02
2018-02-04T21:29:45.437Z,101908.16
2018-02-04T21:32:13.925Z,101909.61
2018-02-04T21:34:42.361Z,101907.56
2018-02-04T21:37:10.730Z,101901.58
2018-02-04T21:39:39.181Z,101904.05
2018-02-04T21:42:07.506Z,101906.32
2018-02-04T21:44:36.095Z,101911.84
2018-02-04T21:47:04.486Z,101913.55
2018-02-04T21:49:32.846Z,101912.72
2018-02-04T21:52:01.176Z,101913.05
2018-02-04T21:54:29.517Z,101920.14
2018-02-04T21:56:57.850Z,101922.69
2018-02-04T21:59:26.200Z,101919.96
2018-02-04T22:01:54.537Z,101919.02
2018-02-04T22:04:22.873Z,101916.79
2018-02-04T22:06:51.201Z,101920.53
2018-02-04T22:09:19.549Z,101930.16
2018-02-04T22:11:47.882Z,101927.52
2018-02-04T22:14:16.230Z,101925.67
2018-02-04T22:16:44.565Z,101933.05
2018-02-04T22:19:12.909Z,101933.44
2018-02-04T22:21:41.236Z,101939.56
2018-02-04T22:24:09.582Z,101938.37
2018-02-04T22:26:37.901Z,101939.27
2018-02-04T22:29:06.249Z,101941.02
2018-02-04T22:31:34.573Z,101949.68
2018-02-04T22:34:02.923Z,101950.84
2018-02-04T22:36:31.249Z,101962.24
2018-02-04T22:38:59.593Z,101957.95
2018-02-04T22:41:27.917Z,101961.95
2018-02-04T22:43:56.261Z,101964.78
2018-02-04T22:46:24.584Z,101959.86
2018-02-04T22:48:52.949Z,101968.59
2018-02-04T22:51:21.258Z,101961.39
2018-02-04T22:53:49.607Z,101969.95
2018-02-04T22:56:17.929Z,101964.78
2018-02-04T22:58:46.282Z,101962.47
2018-02-04T23:01:14.601Z,101963.86
2018-02-04T23:03:42.953Z,101952.97
2018-02-04T23:06:11.281Z,101954.72
2018-02-04T23:08:39.625Z,101954.61
2018-02-04T23:11:07.951Z,101963.31
2018-02-04T23:13:36.294Z,101958.63
2018-02-04T23:16:04.620Z,101962.52
2018-02-04T23:18:32.962Z,101964.63
2018-02-04T23:21:01.286Z,101970.21
2018-02-04T23:23:29.630Z,101971.64
2018-02-04T23:25:57.953Z,101971.84
2018-02-04T23:28:26.297Z,101970.09
2018-02-04T23:30:54.626Z,101979.97
2018-02-04T23:33:22.970Z,101980.82
2018-02-04T23:35:51.298Z,101985.38
2018-02-04T23:38:19.657Z,101980.48
2018-02-04T23:40:47.982Z,101975.33
2018-02-04T23:43:16.313Z,101987.42
2018-02-04T23:45:44.663Z,101982.38
2018-02-04T23:48:12.981Z,101978.53
2018-02-04T23:50:41.337Z,101974.91
2018-02-04T23:53:09.658Z,101981.96
2018-02-04T23:55:38.001Z,101981.98
2018-02-04T23:58:06.327Z,101978.94
